sensor_id;sensor_type;location;lat;lon;timestamp;pressure;altitude;pressure_sealevel;temperature
63113;BMP280;49206;48.020;21.378;2022-09-28T00:00:39;99030.09;;;12.94
63113;BMP280;49206;48.020;21.378;2022-09-28T00:01:43;99029.00;;;12.92
63113;BMP280;49206;48.020;21.378;2022-09-28T00:02:45;99024.06;;;12.91
63113;BMP280;49206;48.020;21.378;2022-09-28T00:03:50;99026.31;;;12.95
63113;BMP280;49206;48.020;21.378;2022-09-28T00:04:53;99028.19;;;13.02
63113;BMP280;49206;48.020;21.378;2022-09-28T00:06:00;99025.19;;;12.96
63113;BMP280;49206;48.020;21.378;2022-09-28T00:07:03;99029.38;;;12.98
63113;BMP280;49206;48.020;21.378;2022-09-28T00:08:05;99038.06;;;12.94
63113;BMP280;49206;48.020;21.378;2022-09-28T00:09:07;99026.72;;;12.98
63113;BMP280;49206;48.020;21.378;2022-09-28T00:10:13;99027.84;;;12.96
63113;BMP280;49206;48.020;21.378;2022-09-28T00:11:17;99025.19;;;12.96
63113;BMP280;49206;48.020;21.378;2022-09-28T00:12:21;99023.31;;;12.97
63113;BMP280;49206;48.020;21.378;2022-09-28T00:13:24;99018.78;;;12.98
63113;BMP280;49206;48.020;21.378;2022-09-28T00:14:27;99015.72;;;12.99
63113;BMP280;49206;48.020;21.378;2022-09-28T00:15:29;99021.41;;;12.98
63113;BMP280;49206;48.020;21.378;2022-09-28T00:16:37;99013.06;;;12.99
63113;BMP280;49206;48.020;21.378;2022-09-28T00:17:40;99017.97;;;13.00
63113;BMP280;49206;48.020;21.378;2022-09-28T00:18:43;99020.25;;;13.02
63113;BMP280;49206;48.020;21.378;2022-09-28T00:19:46;99016.47;;;13.03
63113;BMP280;49206;48.020;21.378;2022-09-28T00:21:02;99024.06;;;12.98
63113;BMP280;49206;48.020;21.378;2022-09-28T00:22:05;99021.03;;;12.95
63113;BMP280;49206;48.020;21.378;2022-09-28T00:23:08;99024.44;;;12.96
63113;BMP280;49206;48.020;21.378;2022-09-28T00:24:13;99010.41;;;12.95
63113;BMP280;49206;48.020;21.378;2022-09-28T00:25:26;99015.72;;;12.99
63113;BMP280;49206;48.020;21.378;2022-09-28T00:26:31;99012.69;;;12.97
63113;BMP280;49206;48.020;21.378;2022-09-28T00:27:33;99013.47;;;12.98
63113;BMP280;49206;48.020;21.378;2022-09-28T00:28:36;99021.41;;;12.98
63113;BMP280;49206;48.020;21.378;2022-09-28T00:29:38;99025.59;;;12.98
63113;BMP280;49206;48.020;21.378;2022-09-28T00:30:40;99025.59;;;12.98
63113;BMP280;49206;48.020;21.378;2022-09-28T00:31:43;99025.94;;;12.97
63113;BMP280;49206;48.020;21.378;2022-09-28T00:32:46;99026.72;;;12.98
63113;BMP280;49206;48.020;21.378;2022-09-28T00:33:49;99030.88;;;12.98
63113;BMP280;49206;48.020;21.378;2022-09-28T00:34:52;99031.22;;;13.00
63113;BMP280;49206;48.020;21.378;2022-09-28T00:35:56;99034.66;;;13.01
63113;BMP280;49206;48.020;21.378;2022-09-28T00:37:00;99034.66;;;13.01
63113;BMP280;49206;48.020;21.378;2022-09-28T00:38:03;99030.88;;;12.95
63113;BMP280;49206;48.020;21.378;2022-09-28T00:39:06;99030.09;;;12.98
63113;BMP280;49206;48.020;21.378;2022-09-28T00:40:09;99038.81;;;12.98
63113;BMP280;49206;48.020;21.378;2022-09-28T00:41:12;99038.44;;;12.96
63113;BMP280;49206;48.020;21.378;2022-09-28T00:42:19;99039.56;;;12.99
63113;BMP280;49206;48.020;21.378;2022-09-28T00:43:23;99036.91;;;12.95
63113;BMP280;49206;48.020;21.378;2022-09-28T00:45:27;99046.00;;;12.98
63113;BMP280;49206;48.020;21.378;2022-09-28T00:46:32;99043.00;;;12.93
63113;BMP280;49206;48.020;21.378;2022-09-28T00:48:55;99042.63;;;12.98
63113;BMP280;49206;48.020;21.378;2022-09-28T00:50:07;99033.13;;;12.96
63113;BMP280;49206;48.020;21.378;2022-09-28T00:51:11;99047.50;;;12.95
63113;BMP280;49206;48.020;21.378;2022-09-28T00:52:19;99043.72;;;12.96
63113;BMP280;49206;48.020;21.378;2022-09-28T00:53:25;99051.31;;;12.94
63113;BMP280;49206;48.020;21.378;2022-09-28T00:54:32;99046.41;;;12.93
63113;BMP280;49206;48.020;21.378;2022-09-28T00:55:47;99047.91;;;12.91
63113;BMP280;49206;48.020;21.378;2022-09-28T00:56:51;99044.13;;;12.85
63113;BMP280;49206;48.020;21.378;2022-09-28T00:57:58;99044.88;;;12.82
63113;BMP280;49206;48.020;21.378;2022-09-28T00:59:01;99037.31;;;12.77
63113;BMP280;49206;48.020;21.378;2022-09-28T01:00:08;99042.22;;;12.82
63113;BMP280;49206;48.020;21.378;2022-09-28T01:01:13;99039.22;;;12.80
63113;BMP280;49206;48.020;21.378;2022-09-28T01:02:15;99040.72;;;12.84
63113;BMP280;49206;48.020;21.378;2022-09-28T01:03:23;99038.09;;;12.77
63113;BMP280;49206;48.020;21.378;2022-09-28T01:04:26;99032.03;;;12.70
63113;BMP280;49206;48.020;21.378;2022-09-28T01:05:32;99032.41;;;12.65
63113;BMP280;49206;48.020;21.378;2022-09-28T01:06:36;99032.78;;;12.60
63113;BMP280;49206;48.020;21.378;2022-09-28T01:07:40;99022.56;;;12.62
63113;BMP280;49206;48.020;21.378;2022-09-28T01:08:44;99028.63;;;12.55
63113;BMP280;49206;48.020;21.378;2022-09-28T01:09:48;99029.38;;;12.49
63113;BMP280;49206;48.020;21.378;2022-09-28T01:10:51;99011.59;;;12.49
63113;BMP280;49206;48.020;21.378;2022-09-28T01:11:54;99012.75;;;12.52
63113;BMP280;49206;48.020;21.378;2022-09-28T01:12:56;99014.25;;;12.49
63113;BMP280;49206;48.020;21.378;2022-09-28T01:14:00;99009.31;;;12.37
63113;BMP280;49206;48.020;21.378;2022-09-28T01:15:03;99011.97;;;12.20
63113;BMP280;49206;48.020;21.378;2022-09-28T01:21:26;99032.72;;;12.14
63113;BMP280;49206;48.020;21.378;2022-09-28T01:24:21;99042.91;;;12.09
63113;BMP280;49206;48.020;21.378;2022-09-28T01:25:40;99045.94;;;12.14
63113;BMP280;49206;48.020;21.378;2022-09-28T01:26:59;99048.97;;;12.09
63113;BMP280;49206;48.020;21.378;2022-09-28T01:28:06;99055.78;;;12.10
63113;BMP280;49206;48.020;21.378;2022-09-28T01:30:22;99054.28;;;12.16
63113;BMP280;49206;48.020;21.378;2022-09-28T01:31:29;99051.25;;;12.14
63113;BMP280;49206;48.020;21.378;2022-09-28T01:33:45;99052.78;;;12.12
63113;BMP280;49206;48.020;21.378;2022-09-28T01:34:56;99058.03;;;12.08
63113;BMP280;49206;48.020;21.378;2022-09-28T01:36:08;99049.72;;;12.03
63113;BMP280;49206;48.020;21.378;2022-09-28T01:37:16;99050.47;;;12.00
63113;BMP280;49206;48.020;21.378;2022-09-28T01:38:40;99047.44;;;12.01
63113;BMP280;49206;48.020;21.378;2022-09-28T01:39:47;99043.28;;;11.97
63113;BMP280;49206;48.020;21.378;2022-09-28T01:40:51;99046.25;;;11.92
63113;BMP280;49206;48.020;21.378;2022-09-28T01:42:02;99049.25;;;11.87
63113;BMP280;49206;48.020;21.378;2022-09-28T01:43:09;99048.16;;;11.88
63113;BMP280;49206;48.020;21.378;2022-09-28T01:44:16;99048.13;;;11.81
63113;BMP280;49206;48.020;21.378;2022-09-28T01:45:28;99050.34;;;11.75
63113;BMP280;49206;48.020;21.378;2022-09-28T01:46:37;99051.50;;;11.78
63113;BMP280;49206;48.020;21.378;2022-09-28T01:47:43;99053.41;;;11.77
63113;BMP280;49206;48.020;21.378;2022-09-28T01:48:57;99044.31;;;11.71
63113;BMP280;49206;48.020;21.378;2022-09-28T01:50:06;99046.56;;;11.73
63113;BMP280;49206;48.020;21.378;2022-09-28T01:51:33;99054.13;;;11.71
63113;BMP280;49206;48.020;21.378;2022-09-28T01:52:48;99052.63;;;11.70
63113;BMP280;49206;48.020;21.378;2022-09-28T01:53:55;99051.50;;;11.71
63113;BMP280;49206;48.020;21.378;2022-09-28T01:55:02;99055.59;;;11.61
63113;BMP280;49206;48.020;21.378;2022-09-28T01:56:16;99066.13;;;11.58
63113;BMP280;49206;48.020;21.378;2022-09-28T01:57:21;99064.66;;;11.64
63113;BMP280;49206;48.020;21.378;2022-09-28T01:58:29;99068.81;;;11.61
63113;BMP280;49206;48.020;21.378;2022-09-28T01:59:35;99062.75;;;11.57
63113;BMP280;49206;48.020;21.378;2022-09-28T02:00:43;99068.78;;;11.58
63113;BMP280;49206;48.020;21.378;2022-09-28T02:02:14;99072.09;;;11.41
63113;BMP280;49206;48.020;21.378;2022-09-28T02:03:22;99064.94;;;11.41
63113;BMP280;49206;48.020;21.378;2022-09-28T02:04:40;99072.47;;;11.43
63113;BMP280;49206;48.020;21.378;2022-09-28T02:05:51;99074.38;;;11.46
63113;BMP280;49206;48.020;21.378;2022-09-28T02:07:00;99068.72;;;11.44
63113;BMP280;49206;48.020;21.378;2022-09-28T02:08:27;99072.53;;;11.50
63113;BMP280;49206;48.020;21.378;2022-09-28T02:09:36;99077.38;;;11.41
63113;BMP280;49206;48.020;21.378;2022-09-28T02:10:43;99075.13;;;11.43
63113;BMP280;49206;48.020;21.378;2022-09-28T02:11:51;99071.34;;;11.44
63113;BMP280;49206;48.020;21.378;2022-09-28T02:13:05;99076.94;;;11.32
63113;BMP280;49206;48.020;21.378;2022-09-28T02:14:11;99078.84;;;11.31
63113;BMP280;49206;48.020;21.378;2022-09-28T02:15:25;99079.56;;;11.25
63113;BMP280;49206;48.020;21.378;2022-09-28T02:16:56;99092.59;;;11.07
63113;BMP280;49206;48.020;21.378;2022-09-28T02:18:02;99090.03;;;11.11
63113;BMP280;49206;48.020;21.378;2022-09-28T02:19:09;99082.84;;;11.11
63113;BMP280;49206;48.020;21.378;2022-09-28T02:20:13;99084.38;;;11.16
63113;BMP280;49206;48.020;21.378;2022-09-28T02:22:49;99093.13;;;11.20
63113;BMP280;49206;48.020;21.378;2022-09-28T02:23:58;99104.84;;;11.26
63113;BMP280;49206;48.020;21.378;2022-09-28T02:26:14;99107.09;;;11.24
63113;BMP280;49206;48.020;21.378;2022-09-28T02:28:27;99110.53;;;11.28
63113;BMP280;49206;48.020;21.378;2022-09-28T02:29:29;99106.75;;;11.29
63113;BMP280;49206;48.020;21.378;2022-09-28T02:30:35;99102.19;;;11.26
63113;BMP280;49206;48.020;21.378;2022-09-28T02:31:37;99107.47;;;11.22
63113;BMP280;49206;48.020;21.378;2022-09-28T02:32:44;99106.34;;;11.23
63113;BMP280;49206;48.020;21.378;2022-09-28T02:33:50;99103.38;;;11.28
63113;BMP280;49206;48.020;21.378;2022-09-28T02:34:54;99101.84;;;11.27
63113;BMP280;49206;48.020;21.378;2022-09-28T02:35:57;99107.81;;;11.21
63113;BMP280;49206;48.020;21.378;2022-09-28T02:37:02;99104.81;;;11.22
63113;BMP280;49206;48.020;21.378;2022-09-28T02:38:05;99108.19;;;11.23
63113;BMP280;49206;48.020;21.378;2022-09-28T02:39:14;99123.25;;;11.15
63113;BMP280;49206;48.020;21.378;2022-09-28T02:40:21;99119.47;;;11.13
63113;BMP280;49206;48.020;21.378;2022-09-28T02:41:33;99122.47;;;11.11
63113;BMP280;49206;48.020;21.378;2022-09-28T02:46:52;99132.34;;;11.18
63113;BMP280;49206;48.020;21.378;2022-09-28T02:47:39;99142.91;;;11.18
63113;BMP280;49206;48.020;21.378;2022-09-28T02:50:42;99140.50;;;11.02
63113;BMP280;49206;48.020;21.378;2022-09-28T02:55:51;99159.69;;;10.96
63113;BMP280;49206;48.020;21.378;2022-09-28T03:00:16;99172.06;;;10.88
63113;BMP280;49206;48.020;21.378;2022-09-28T03:07:56;99176.53;;;10.81
63113;BMP280;49206;48.020;21.378;2022-09-28T03:09:01;99175.44;;;10.86
63113;BMP280;49206;48.020;21.378;2022-09-28T03:10:35;99176.19;;;10.83
63113;BMP280;49206;48.020;21.378;2022-09-28T03:11:59;99177.56;;;10.73
63113;BMP280;49206;48.020;21.378;2022-09-28T03:13:05;99182.13;;;10.76
63113;BMP280;49206;48.020;21.378;2022-09-28T03:14:10;99183.97;;;10.72
63113;BMP280;49206;48.020;21.378;2022-09-28T03:15:31;99176.84;;;10.76
63113;BMP280;49206;48.020;21.378;2022-09-28T03:16:34;99175.31;;;10.72
63113;BMP280;49206;48.020;21.378;2022-09-28T03:17:37;99174.19;;;10.73
63113;BMP280;49206;48.020;21.378;2022-09-28T03:18:40;99181.75;;;10.78
63113;BMP280;49206;48.020;21.378;2022-09-28T03:19:42;99187.72;;;10.71
63113;BMP280;49206;48.020;21.378;2022-09-28T03:20:45;99183.16;;;10.68
63113;BMP280;49206;48.020;21.378;2022-09-28T03:21:48;99180.59;;;10.72
63113;BMP280;49206;48.020;21.378;2022-09-28T03:22:51;99183.25;;;10.75
63113;BMP280;49206;48.020;21.378;2022-09-28T03:24:13;99186.22;;;10.70
63113;BMP280;49206;48.020;21.378;2022-09-28T03:25:16;99180.94;;;10.70
63113;BMP280;49206;48.020;21.378;2022-09-28T03:26:19;99188.84;;;10.70
63113;BMP280;49206;48.020;21.378;2022-09-28T03:27:21;99184.38;;;10.74
63113;BMP280;49206;48.020;21.378;2022-09-28T03:28:24;99188.91;;;10.77
63113;BMP280;49206;48.020;21.378;2022-09-28T03:29:28;99182.53;;;10.78
63113;BMP280;49206;48.020;21.378;2022-09-28T03:30:35;99182.16;;;10.80
63113;BMP280;49206;48.020;21.378;2022-09-28T03:31:45;99181.00;;;10.77
63113;BMP280;49206;48.020;21.378;2022-09-28T03:32:59;99180.50;;;10.68
63113;BMP280;49206;48.020;21.378;2022-09-28T03:34:04;99177.16;;;10.68
63113;BMP280;49206;48.020;21.378;2022-09-28T03:35:07;99178.22;;;10.63
63113;BMP280;49206;48.020;21.378;2022-09-28T03:36:10;99172.13;;;10.59
63113;BMP280;49206;48.020;21.378;2022-09-28T03:37:15;99169.13;;;10.61
63113;BMP280;49206;48.020;21.378;2022-09-28T03:38:18;99176.19;;;10.50
63113;BMP280;49206;48.020;21.378;2022-09-28T03:39:21;99170.94;;;10.53
63113;BMP280;49206;48.020;21.378;2022-09-28T03:40:24;99179.63;;;10.54
63113;BMP280;49206;48.020;21.378;2022-09-28T03:41:26;99175.44;;;10.53
63113;BMP280;49206;48.020;21.378;2022-09-28T03:42:29;99177.59;;;10.44
63113;BMP280;49206;48.020;21.378;2022-09-28T03:43:32;99178.34;;;10.41
63113;BMP280;49206;48.020;21.378;2022-09-28T03:44:36;99181.03;;;10.48
63113;BMP280;49206;48.020;21.378;2022-09-28T03:45:39;99184.00;;;10.43
63113;BMP280;49206;48.020;21.378;2022-09-28T03:46:42;99188.56;;;10.46
63113;BMP280;49206;48.020;21.378;2022-09-28T03:47:47;99193.41;;;10.40
63113;BMP280;49206;48.020;21.378;2022-09-28T03:48:55;99193.41;;;10.44
63113;BMP280;49206;48.020;21.378;2022-09-28T03:49:58;99187.72;;;10.38
63113;BMP280;49206;48.020;21.378;2022-09-28T03:51:05;99194.16;;;10.41
63113;BMP280;49206;48.020;21.378;2022-09-28T03:52:10;99191.00;;;10.28
63113;BMP280;49206;48.020;21.378;2022-09-28T03:53:13;99188.06;;;10.33
63113;BMP280;49206;48.020;21.378;2022-09-28T03:54:15;99198.59;;;10.33
63113;BMP280;49206;48.020;21.378;2022-09-28T03:55:18;99201.63;;;10.35
63113;BMP280;49206;48.020;21.378;2022-09-28T03:56:20;99192.56;;;10.36
63113;BMP280;49206;48.020;21.378;2022-09-28T03:57:22;99200.16;;;10.38
63113;BMP280;49206;48.020;21.378;2022-09-28T03:58:26;99194.91;;;10.41
63113;BMP280;49206;48.020;21.378;2022-09-28T03:59:29;99201.66;;;10.39
63113;BMP280;49206;48.020;21.378;2022-09-28T04:00:31;99207.72;;;10.39
63113;BMP280;49206;48.020;21.378;2022-09-28T04:01:34;99206.19;;;10.38
63113;BMP280;49206;48.020;21.378;2022-09-28T04:02:37;99203.56;;;10.38
63113;BMP280;49206;48.020;21.378;2022-09-28T04:03:39;99203.81;;;10.30
63113;BMP280;49206;48.020;21.378;2022-09-28T04:04:41;99205.69;;;10.26
63113;BMP280;49206;48.020;21.378;2022-09-28T04:05:48;99207.59;;;10.32
63113;BMP280;49206;48.020;21.378;2022-09-28T04:06:51;99204.91;;;10.29
63113;BMP280;49206;48.020;21.378;2022-09-28T04:07:54;99213.66;;;10.33
63113;BMP280;49206;48.020;21.378;2022-09-28T04:08:59;99208.38;;;10.33
63113;BMP280;49206;48.020;21.378;2022-09-28T04:10:03;99208.03;;;10.34
63113;BMP280;49206;48.020;21.378;2022-09-28T04:11:06;99207.66;;;10.36
63113;BMP280;49206;48.020;21.378;2022-09-28T04:12:09;99204.63;;;10.34
63113;BMP280;49206;48.020;21.378;2022-09-28T04:13:11;99206.88;;;10.32
63113;BMP280;49206;48.020;21.378;2022-09-28T04:14:15;99203.81;;;10.30
63113;BMP280;49206;48.020;21.378;2022-09-28T04:15:17;99207.53;;;10.25
63113;BMP280;49206;48.020;21.378;2022-09-28T04:16:20;99206.41;;;10.26
63113;BMP280;49206;48.020;21.378;2022-09-28T04:17:48;99210.53;;;10.24
63113;BMP280;49206;48.020;21.378;2022-09-28T04:19:09;99211.59;;;10.19
63113;BMP280;49206;48.020;21.378;2022-09-28T04:20:38;99212.41;;;10.23
63113;BMP280;49206;48.020;21.378;2022-09-28T04:21:47;99212.81;;;10.25
63113;BMP280;49206;48.020;21.378;2022-09-28T04:22:51;99214.13;;;10.12
63113;BMP280;49206;48.020;21.378;2022-09-28T04:23:54;99219.06;;;10.14
63113;BMP280;49206;48.020;21.378;2022-09-28T04:24:56;99208.94;;;10.19
63113;BMP280;49206;48.020;21.378;2022-09-28T04:25:59;99217.69;;;10.23
63113;BMP280;49206;48.020;21.378;2022-09-28T04:27:02;99206.72;;;10.21
63113;BMP280;49206;48.020;21.378;2022-09-28T04:28:27;99206.38;;;10.23
63113;BMP280;49206;48.020;21.378;2022-09-28T04:29:49;99202.22;;;10.22
63113;BMP280;49206;48.020;21.378;2022-09-28T04:30:52;99213.84;;;10.17
63113;BMP280;49206;48.020;21.378;2022-09-28T04:31:56;99208.22;;;10.19
63113;BMP280;49206;48.020;21.378;2022-09-28T04:33:09;99205.25;;;10.24
63113;BMP280;49206;48.020;21.378;2022-09-28T04:34:13;99204.91;;;10.25
63113;BMP280;49206;48.020;21.378;2022-09-28T04:35:16;99206.41;;;10.26
63113;BMP280;49206;48.020;21.378;2022-09-28T04:36:18;99206.03;;;10.28
63113;BMP280;49206;48.020;21.378;2022-09-28T04:37:21;99202.28;;;10.29
63113;BMP280;49206;48.020;21.378;2022-09-28T04:38:24;99201.44;;;10.21
63113;BMP280;49206;48.020;21.378;2022-09-28T04:39:47;99200.25;;;10.15
63113;BMP280;49206;48.020;21.378;2022-09-28T04:40:52;99204.34;;;10.13
63113;BMP280;49206;48.020;21.378;2022-09-28T04:41:55;99195.66;;;10.12
63113;BMP280;49206;48.020;21.378;2022-09-28T04:42:57;99214.22;;;10.19
63113;BMP280;49206;48.020;21.378;2022-09-28T04:44:00;99211.59;;;10.19
63113;BMP280;49206;48.020;21.378;2022-09-28T04:45:03;99216.97;;;10.26
63113;BMP280;49206;48.020;21.378;2022-09-28T04:46:09;99210.56;;;10.27
63113;BMP280;49206;48.020;21.378;2022-09-28T04:47:17;99215.81;;;10.24
63113;BMP280;49206;48.020;21.378;2022-09-28T04:48:40;99223.78;;;10.27
63113;BMP280;49206;48.020;21.378;2022-09-28T04:49:52;99222.41;;;10.11
63113;BMP280;49206;48.020;21.378;2022-09-28T04:51:00;99225.91;;;10.18
63113;BMP280;49206;48.020;21.378;2022-09-28T04:52:04;99222.47;;;10.14
63113;BMP280;49206;48.020;21.378;2022-09-28T04:53:08;99222.16;;;10.19
63113;BMP280;49206;48.020;21.378;2022-09-28T04:54:11;99229.69;;;10.21
63113;BMP280;49206;48.020;21.378;2022-09-28T04:55:13;99222.47;;;10.14
63113;BMP280;49206;48.020;21.378;2022-09-28T04:56:17;99220.53;;;10.11
63113;BMP280;49206;48.020;21.378;2022-09-28T04:57:20;99219.41;;;10.12
63113;BMP280;49206;48.020;21.378;2022-09-28T04:58:23;99228.47;;;10.15
63113;BMP280;49206;48.020;21.378;2022-09-28T04:59:26;99227.75;;;10.14
63113;BMP280;49206;48.020;21.378;2022-09-28T05:00:29;99220.91;;;10.13
63113;BMP280;49206;48.020;21.378;2022-09-28T05:01:49;99230.66;;;10.09
63113;BMP280;49206;48.020;21.378;2022-09-28T05:03:10;99230.81;;;10.20
63113;BMP280;49206;48.020;21.378;2022-09-28T05:04:31;99235.03;;;10.24
63113;BMP280;49206;48.020;21.378;2022-09-28T05:05:46;99241.88;;;10.29
63113;BMP280;49206;48.020;21.378;2022-09-28T05:07:14;99243.38;;;10.30
63113;BMP280;49206;48.020;21.378;2022-09-28T05:08:17;99245.28;;;10.29
63113;BMP280;49206;48.020;21.378;2022-09-28T05:09:19;99245.88;;;10.19
63113;BMP280;49206;48.020;21.378;2022-09-28T05:10:22;99247.00;;;10.18
63113;BMP280;49206;48.020;21.378;2022-09-28T05:11:26;99251.16;;;10.19
63113;BMP280;49206;48.020;21.378;2022-09-28T05:12:28;99252.00;;;10.23
63113;BMP280;49206;48.020;21.378;2022-09-28T05:13:33;99254.63;;;10.23
63113;BMP280;49206;48.020;21.378;2022-09-28T05:14:41;99252.56;;;10.13
63113;BMP280;49206;48.020;21.378;2022-09-28T05:15:44;99252.69;;;10.20
63113;BMP280;49206;48.020;21.378;2022-09-28T05:16:48;99259.97;;;10.27
63113;BMP280;49206;48.020;21.378;2022-09-28T05:18:13;99259.59;;;10.28
63113;BMP280;49206;48.020;21.378;2022-09-28T05:19:21;99252.78;;;10.27
63113;BMP280;49206;48.020;21.378;2022-09-28T05:20:26;99256.56;;;10.30
63113;BMP280;49206;48.020;21.378;2022-09-28T05:21:28;99257.34;;;10.30
63113;BMP280;49206;48.020;21.378;2022-09-28T05:22:32;99260.44;;;10.36
63113;BMP280;49206;48.020;21.378;2022-09-28T05:23:34;99258.53;;;10.36
63113;BMP280;49206;48.020;21.378;2022-09-28T05:24:36;99257.84;;;10.39
63113;BMP280;49206;48.020;21.378;2022-09-28T05:25:39;99257.84;;;10.39
63113;BMP280;49206;48.020;21.378;2022-09-28T05:26:51;99262.34;;;10.39
63113;BMP280;49206;48.020;21.378;2022-09-28T05:27:56;99257.50;;;10.41
63113;BMP280;49206;48.020;21.378;2022-09-28T05:29:28;99258.31;;;10.45
63113;BMP280;49206;48.020;21.378;2022-09-28T05:30:52;99255.75;;;10.52
63113;BMP280;49206;48.020;21.378;2022-09-28T05:32:12;99250.88;;;10.54
63113;BMP280;49206;48.020;21.378;2022-09-28T05:33:24;99248.63;;;10.56
63113;BMP280;49206;48.020;21.378;2022-09-28T05:34:41;99263.03;;;10.62
63113;BMP280;49206;48.020;21.378;2022-09-28T05:35:50;99257.00;;;10.61
63113;BMP280;49206;48.020;21.378;2022-09-28T05:36:57;99263.13;;;10.69
63113;BMP280;49206;48.020;21.378;2022-09-28T05:38:03;99260.13;;;10.70
63113;BMP280;49206;48.020;21.378;2022-09-28T05:39:07;99259.84;;;10.75
63113;BMP280;49206;48.020;21.378;2022-09-28T05:40:10;99257.16;;;10.72
63113;BMP280;49206;48.020;21.378;2022-09-28T05:41:13;99256.44;;;10.75
63113;BMP280;49206;48.020;21.378;2022-09-28T05:42:18;99255.34;;;10.79
63113;BMP280;49206;48.020;21.378;2022-09-28T05:43:21;99264.06;;;10.83
63113;BMP280;49206;48.020;21.378;2022-09-28T05:44:23;99262.81;;;10.74
63113;BMP280;49206;48.020;21.378;2022-09-28T05:45:28;99259.47;;;10.77
63113;BMP280;49206;48.020;21.378;2022-09-28T05:46:31;99258.03;;;10.83
63113;BMP280;49206;48.020;21.378;2022-09-28T05:47:39;99266.47;;;10.95
63113;BMP280;49206;48.020;21.378;2022-09-28T05:48:42;99271.09;;;11.05
63113;BMP280;49206;48.020;21.378;2022-09-28T05:49:44;99268.47;;;11.05
63113;BMP280;49206;48.020;21.378;2022-09-28T05:50:51;99266.94;;;11.04
63113;BMP280;49206;48.020;21.378;2022-09-28T05:51:54;99265.81;;;11.05
63113;BMP280;49206;48.020;21.378;2022-09-28T05:53:01;99269.69;;;11.11
63113;BMP280;49206;48.020;21.378;2022-09-28T05:54:04;99267.53;;;11.23
63113;BMP280;49206;48.020;21.378;2022-09-28T05:55:18;99271.31;;;13.57
63113;BMP280;49206;48.020;21.378;2022-09-28T05:56:20;99265.53;;;15.04
63113;BMP280;49206;48.020;21.378;2022-09-28T05:57:24;99263.03;;;15.74
63113;BMP280;49206;48.020;21.378;2022-09-28T05:58:27;99260.72;;;14.85
63113;BMP280;49206;48.020;21.378;2022-09-28T05:59:34;99277.91;;;14.63
63113;BMP280;49206;48.020;21.378;2022-09-28T06:00:39;99278.53;;;15.42
63113;BMP280;49206;48.020;21.378;2022-09-28T06:01:42;99281.84;;;15.97
63113;BMP280;49206;48.020;21.378;2022-09-28T06:03:08;99280.41;;;15.86
63113;BMP280;49206;48.020;21.378;2022-09-28T06:04:11;99284.03;;;14.57
63113;BMP280;49206;48.020;21.378;2022-09-28T06:05:17;99284.72;;;14.71
63113;BMP280;49206;48.020;21.378;2022-09-28T06:06:22;99277.53;;;14.65
63113;BMP280;49206;48.020;21.378;2022-09-28T06:07:25;99284.06;;;14.46
63113;BMP280;49206;48.020;21.378;2022-09-28T06:08:30;99283.41;;;15.91
63113;BMP280;49206;48.020;21.378;2022-09-28T06:10:12;99278.38;;;16.33
63113;BMP280;49206;48.020;21.378;2022-09-28T06:11:16;99277.72;;;15.52
63113;BMP280;49206;48.020;21.378;2022-09-28T06:12:19;99289.28;;;14.60
63113;BMP280;49206;48.020;21.378;2022-09-28T06:13:23;99281.91;;;13.89
63113;BMP280;49206;48.020;21.378;2022-09-28T06:14:25;99287.22;;;13.40
63113;BMP280;49206;48.020;21.378;2022-09-28T06:15:30;99286.84;;;13.06
63113;BMP280;49206;48.020;21.378;2022-09-28T06:16:34;99284.16;;;13.13
63113;BMP280;49206;48.020;21.378;2022-09-28T06:17:43;99286.09;;;13.27
63113;BMP280;49206;48.020;21.378;2022-09-28T06:19:04;99280.00;;;13.05
63113;BMP280;49206;48.020;21.378;2022-09-28T06:20:46;99283.69;;;12.73
63113;BMP280;49206;48.020;21.378;2022-09-28T06:21:50;99278.69;;;12.58
63113;BMP280;49206;48.020;21.378;2022-09-28T06:22:53;99283.22;;;12.57
63113;BMP280;49206;48.020;21.378;2022-09-28T06:23:56;99287.31;;;12.41
63113;BMP280;49206;48.020;21.378;2022-09-28T06:24:59;99285.06;;;12.50
63113;BMP280;49206;48.020;21.378;2022-09-28T06:26:02;99288.72;;;13.23
63113;BMP280;49206;48.020;21.378;2022-09-28T06:27:05;99287.56;;;14.22
63113;BMP280;49206;48.020;21.378;2022-09-28T06:28:12;99286.88;;;14.90
63113;BMP280;49206;48.020;21.378;2022-09-28T06:29:15;99288.50;;;14.70
63113;BMP280;49206;48.020;21.378;2022-09-28T06:30:22;99281.41;;;14.46
63113;BMP280;49206;48.020;21.378;2022-09-28T06:31:28;99279.97;;;14.21
63113;BMP280;49206;48.020;21.378;2022-09-28T06:32:32;99279.63;;;13.94
63113;BMP280;49206;48.020;21.378;2022-09-28T06:33:35;99283.84;;;13.81
63113;BMP280;49206;48.020;21.378;2022-09-28T06:34:39;99284.56;;;14.10
63113;BMP280;49206;48.020;21.378;2022-09-28T06:35:43;99286.44;;;14.06
63113;BMP280;49206;48.020;21.378;2022-09-28T06:36:46;99300.91;;;13.77
63113;BMP280;49206;48.020;21.378;2022-09-28T06:37:50;99298.00;;;14.64
63113;BMP280;49206;48.020;21.378;2022-09-28T06:38:54;99300.66;;;15.80
63113;BMP280;49206;48.020;21.378;2022-09-28T06:39:56;99297.72;;;17.20
63113;BMP280;49206;48.020;21.378;2022-09-28T06:40:59;99301.03;;;18.67
63113;BMP280;49206;48.020;21.378;2022-09-28T06:42:02;99302.72;;;19.41
63113;BMP280;49206;48.020;21.378;2022-09-28T06:43:24;99304.13;;;20.68
63113;BMP280;49206;48.020;21.378;2022-09-28T06:44:50;99302.28;;;20.40
63113;BMP280;49206;48.020;21.378;2022-09-28T06:46:16;99288.47;;;21.13
63113;BMP280;49206;48.020;21.378;2022-09-28T06:47:22;99296.91;;;20.90
63113;BMP280;49206;48.020;21.378;2022-09-28T06:48:44;99287.59;;;21.92
63113;BMP280;49206;48.020;21.378;2022-09-28T06:49:51;99290.50;;;21.21
63113;BMP280;49206;48.020;21.378;2022-09-28T06:51:19;99291.09;;;21.59
63113;BMP280;49206;48.020;21.378;2022-09-28T06:52:31;99295.66;;;21.16
63113;BMP280;49206;48.020;21.378;2022-09-28T06:53:40;99294.13;;;21.39
63113;BMP280;49206;48.020;21.378;2022-09-28T06:54:48;99294.53;;;20.92
63113;BMP280;49206;48.020;21.378;2022-09-28T06:56:04;99296.50;;;21.25
63113;BMP280;49206;48.020;21.378;2022-09-28T06:57:08;99293.97;;;21.64